createdAt,value
2023-03-06T00:00:02.030Z,91.32
2023-03-06T00:02:28.584Z,91.22
2023-03-06T00:04:55.197Z,91.18
2023-03-06T00:07:21.834Z,91.27
2023-03-06T00:09:48.453Z,91.34
2023-03-06T00:12:15.109Z,90.71
2023-03-06T00:14:41.681Z,90.87
2023-03-06T00:17:08.212Z,90.92
2023-03-06T00:19:34.805Z,90.64
2023-03-06T00:22:03.288Z,90.99
2023-03-06T00:24:29.837Z,89.80
2023-03-06T00:26:56.504Z,88.98
2023-03-06T00:29:23.100Z,88.51
2023-03-06T00:31:49.715Z,89.84
2023-03-06T00:34:16.320Z,91.21
2023-03-06T00:36:42.976Z,91.32
2023-03-06T00:39:09.683Z,90.14
2023-03-06T00:41:36.349Z,90.00
2023-03-06T00:44:02.913Z,90.95
2023-03-06T00:46:29.523Z,91.88
2023-03-06T00:48:56.145Z,92.45
2023-03-06T00:51:22.874Z,92.68
2023-03-06T00:53:49.563Z,92.39
2023-03-06T00:56:17.905Z,92.19
2023-03-06T00:58:45.919Z,92.06
2023-03-06T01:01:12.649Z,92.78
2023-03-06T01:03:39.259Z,92.08
2023-03-06T01:06:06.081Z,91.66
2023-03-06T01:08:32.655Z,91.63
2023-03-06T01:10:59.362Z,91.08
2023-03-06T01:13:25.927Z,89.21
2023-03-06T01:15:52.840Z,87.14
2023-03-06T01:18:19.482Z,87.43
2023-03-06T01:20:46.054Z,87.30
2023-03-06T01:23:12.612Z,87.28
2023-03-06T01:25:39.155Z,87.38
2023-03-06T01:28:05.800Z,87.75
2023-03-06T01:30:32.338Z,86.85
2023-03-06T01:32:59.311Z,87.65
2023-03-06T01:35:25.950Z,88.23
2023-03-06T01:37:52.547Z,88.52
2023-03-06T01:40:19.220Z,89.00
2023-03-06T01:42:49.283Z,89.08
2023-03-06T01:45:15.817Z,88.69
2023-03-06T01:47:42.522Z,87.88
2023-03-06T01:50:11.680Z,87.53
2023-03-06T01:52:50.202Z,88.20
2023-03-06T01:55:24.960Z,88.26
2023-03-06T01:57:57.838Z,87.84
2023-03-06T02:00:26.964Z,88.15
2023-03-06T02:02:56.992Z,87.83
2023-03-06T02:05:24.160Z,88.31
2023-03-06T02:07:51.968Z,87.63
2023-03-06T02:10:19.985Z,88.24
2023-03-06T02:12:49.235Z,88.73
2023-03-06T02:15:18.512Z,89.26
2023-03-06T02:17:46.864Z,89.64
2023-03-06T02:20:34.455Z,90.00
2023-03-06T02:23:03.783Z,90.77
2023-03-06T02:25:36.522Z,90.14
2023-03-06T02:28:04.730Z,90.22
2023-03-06T02:30:32.120Z,90.42
2023-03-06T02:32:58.860Z,91.40
2023-03-06T02:35:28.143Z,91.62
2023-03-06T02:37:57.291Z,92.22
2023-03-06T02:40:24.125Z,92.93
2023-03-06T02:42:56.293Z,93.61
2023-03-06T02:45:34.359Z,95.12
2023-03-06T02:48:00.963Z,96.75
2023-03-06T02:50:27.600Z,98.36
2023-03-06T02:52:54.404Z,97.83
2023-03-06T02:55:21.029Z,98.96
2023-03-06T02:57:47.676Z,98.58
2023-03-06T03:00:15.344Z,97.83
2023-03-06T03:02:42.282Z,99.00
2023-03-06T03:05:09.059Z,98.39
2023-03-06T03:07:36.029Z,98.52
2023-03-06T03:10:03.513Z,98.44
2023-03-06T03:12:30.155Z,98.35
2023-03-06T03:14:56.829Z,96.56
2023-03-06T03:17:24.445Z,95.18
2023-03-06T03:19:51.094Z,94.28
2023-03-06T03:22:17.801Z,93.74
2023-03-06T03:24:44.577Z,94.10
2023-03-06T03:27:11.168Z,94.70
2023-03-06T03:29:37.804Z,95.82
2023-03-06T03:32:04.938Z,95.97
2023-03-06T03:34:31.747Z,96.10
2023-03-06T03:36:58.316Z,96.32
2023-03-06T03:39:25.068Z,95.58
2023-03-06T03:41:51.717Z,96.21
2023-03-06T03:44:18.322Z,95.72
2023-03-06T03:46:44.941Z,94.24
2023-03-06T03:49:11.669Z,94.13
2023-03-06T03:51:38.297Z,94.64
2023-03-06T03:54:06.591Z,94.29
2023-03-06T03:56:34.096Z,94.71
2023-03-06T03:59:01.025Z,95.26
2023-03-06T04:01:27.842Z,97.27
2023-03-06T04:03:54.612Z,94.80
2023-03-06T04:06:21.162Z,93.14
2023-03-06T04:08:47.927Z,93.30
2023-03-06T04:11:15.160Z,93.57
2023-03-06T04:13:41.735Z,94.64
2023-03-06T04:16:08.358Z,94.58
2023-03-06T04:18:34.986Z,94.29
2023-03-06T04:21:01.581Z,92.90
2023-03-06T04:23:28.458Z,93.41
2023-03-06T04:25:55.177Z,92.67
2023-03-06T04:28:21.816Z,92.13
2023-03-06T04:30:48.433Z,93.08
2023-03-06T04:33:15.094Z,93.03
2023-03-06T04:35:41.688Z,92.13
2023-03-06T04:38:08.394Z,91.94
2023-03-06T04:40:36.700Z,93.18
2023-03-06T04:43:04.470Z,92.84
2023-03-06T04:45:32.675Z,92.39
2023-03-06T04:47:59.614Z,91.86
2023-03-06T04:50:33.810Z,91.00
2023-03-06T04:53:01.491Z,90.70
2023-03-06T04:55:28.592Z,90.75
2023-03-06T04:57:55.344Z,91.45
2023-03-06T05:00:24.420Z,91.14
2023-03-06T05:02:51.774Z,90.73
2023-03-06T05:05:19.122Z,91.49
2023-03-06T05:07:46.130Z,91.11
2023-03-06T05:10:15.548Z,90.98
2023-03-06T05:12:42.900Z,92.18
2023-03-06T05:15:11.296Z,91.50
2023-03-06T05:17:38.419Z,91.70
2023-03-06T05:20:07.080Z,92.35
2023-03-06T05:22:34.673Z,92.67
2023-03-06T05:25:01.285Z,91.43
2023-03-06T05:27:28.662Z,91.80
2023-03-06T05:29:55.432Z,91.60
2023-03-06T05:32:22.510Z,92.37
2023-03-06T05:34:49.681Z,92.31
2023-03-06T05:37:16.299Z,93.08
2023-03-06T05:39:43.070Z,92.72
2023-03-06T05:42:09.641Z,92.59
2023-03-06T05:44:36.723Z,92.33
2023-03-06T05:47:03.369Z,91.48
2023-03-06T05:49:36.792Z,89.92
2023-03-06T05:52:04.782Z,88.81
2023-03-06T05:54:32.964Z,87.20
2023-03-06T05:56:59.785Z,85.92
2023-03-06T05:59:28.576Z,84.52
2023-03-06T06:01:56.177Z,83.90
2023-03-06T06:04:24.752Z,83.72
2023-03-06T06:06:53.875Z,83.80
2023-03-06T06:09:22.429Z,83.89
2023-03-06T06:12:02.610Z,83.08
2023-03-06T06:14:30.117Z,81.60
2023-03-06T06:16:56.895Z,81.14
2023-03-06T06:19:23.537Z,80.19
2023-03-06T06:21:52.404Z,80.10
2023-03-06T06:24:21.791Z,79.24
2023-03-06T06:26:53.906Z,78.81
2023-03-06T06:29:22.045Z,78.30
2023-03-06T06:31:48.743Z,78.94
2023-03-06T06:34:15.419Z,77.47
2023-03-06T06:36:42.162Z,76.14
2023-03-06T06:39:09.284Z,76.68
2023-03-06T06:41:54.978Z,76.33
2023-03-06T06:44:22.824Z,75.49
2023-03-06T06:47:21.386Z,73.85
2023-03-06T06:49:37.463Z,72.81
2023-03-06T06:52:05.613Z,72.58
2023-03-06T06:54:34.024Z,71.14
2023-03-06T06:57:00.587Z,68.88
2023-03-06T06:59:27.249Z,69.01
2023-03-06T07:01:53.968Z,67.78
2023-03-06T07:04:20.600Z,66.73
2023-03-06T07:06:47.334Z,66.48
2023-03-06T07:09:14.366Z,66.93
2023-03-06T07:11:41.657Z,67.29
2023-03-06T07:14:08.361Z,66.99
2023-03-06T07:16:35.139Z,67.72
2023-03-06T07:19:01.977Z,67.63
2023-03-06T07:21:28.783Z,67.95
2023-03-06T07:23:57.455Z,71.02
2023-03-06T07:26:28.048Z,71.13
2023-03-06T07:28:55.070Z,70.84
2023-03-06T07:31:24.883Z,69.10
2023-03-06T07:33:53.221Z,69.63
2023-03-06T07:36:20.628Z,67.67
2023-03-06T07:38:47.240Z,67.35
2023-03-06T07:41:16.523Z,66.99
2023-03-06T07:43:44.579Z,66.40
2023-03-06T07:46:12.918Z,67.49
2023-03-06T07:48:40.178Z,66.11
2023-03-06T07:51:12.414Z,62.68
2023-03-06T07:53:39.802Z,61.83
2023-03-06T07:56:09.005Z,58.88
2023-03-06T07:58:38.132Z,58.15
2023-03-06T08:01:06.174Z,59.16
2023-03-06T08:03:33.365Z,57.63
2023-03-06T08:06:10.144Z,57.27
2023-03-06T08:08:39.455Z,53.67
2023-03-06T08:11:07.213Z,54.06
2023-03-06T08:13:34.730Z,52.39
2023-03-06T08:16:01.459Z,52.26
2023-03-06T08:18:28.946Z,52.78
2023-03-06T08:21:07.188Z,51.65
2023-03-06T08:23:35.146Z,48.16
2023-03-06T08:26:05.163Z,47.98
2023-03-06T08:28:32.628Z,48.07
2023-03-06T08:31:07.201Z,46.60
2023-03-06T08:33:33.845Z,46.91
2023-03-06T08:36:02.080Z,46.93
2023-03-06T08:38:30.182Z,47.01
2023-03-06T08:40:56.898Z,46.31
2023-03-06T08:43:23.483Z,47.57
2023-03-06T08:45:57.983Z,46.58
2023-03-06T08:48:25.244Z,46.58
2023-03-06T08:50:52.442Z,46.68
2023-03-06T08:53:19.464Z,46.76
2023-03-06T08:55:46.534Z,45.83
2023-03-06T08:58:13.511Z,46.35
2023-03-06T09:00:40.299Z,46.42
2023-03-06T09:03:06.964Z,46.36
2023-03-06T09:05:33.908Z,45.95
2023-03-06T09:08:00.533Z,46.39
2023-03-06T09:10:27.781Z,45.73
2023-03-06T09:12:55.412Z,45.59
2023-03-06T09:15:23.255Z,45.18
2023-03-06T09:17:50.871Z,45.44
2023-03-06T09:20:18.101Z,46.60
2023-03-06T09:22:45.708Z,45.63
2023-03-06T09:25:21.850Z,45.89
2023-03-06T09:27:58.308Z,45.44
2023-03-06T09:30:31.981Z,44.90
2023-03-06T09:32:58.557Z,44.26
2023-03-06T09:35:25.142Z,46.46
2023-03-06T09:37:51.775Z,46.37
2023-03-06T09:40:47.059Z,46.91
2023-03-06T09:43:23.802Z,45.01
2023-03-06T09:45:50.383Z,46.36
2023-03-06T09:48:20.100Z,46.11
2023-03-06T09:50:54.439Z,45.02
2023-03-06T09:53:45.187Z,44.11
2023-03-06T09:56:23.496Z,44.72
2023-03-06T09:58:55.953Z,44.85
2023-03-06T10:01:36.608Z,44.79
2023-03-06T10:04:32.324Z,44.44
2023-03-06T10:07:04.658Z,43.64
2023-03-06T10:09:43.168Z,43.75
2023-03-06T10:12:41.104Z,42.96
2023-03-06T10:15:23.700Z,44.04
2023-03-06T10:17:50.366Z,43.34
2023-03-06T10:20:18.717Z,42.49
2023-03-06T10:23:01.274Z,41.48
2023-03-06T10:25:37.706Z,43.52
2023-03-06T10:28:17.722Z,42.12
2023-03-06T10:30:52.881Z,42.61
2023-03-06T10:33:38.203Z,42.46
2023-03-06T10:36:05.171Z,42.10
2023-03-06T10:38:31.778Z,41.57
2023-03-06T10:41:18.589Z,40.31
2023-03-06T10:44:05.251Z,40.80
2023-03-06T10:46:31.996Z,38.83
2023-03-06T10:49:24.728Z,39.78
2023-03-06T10:52:05.738Z,40.40
2023-03-06T10:54:36.013Z,38.30
2023-03-06T10:57:25.898Z,39.20
2023-03-06T10:59:58.644Z,39.60
2023-03-06T11:02:32.870Z,38.96
2023-03-06T11:05:01.370Z,39.31
2023-03-06T11:07:33.254Z,36.86
2023-03-06T11:10:04.967Z,36.99
2023-03-06T11:12:38.674Z,38.13
2023-03-06T11:15:14.275Z,39.14
2023-03-06T11:17:59.249Z,39.07
2023-03-06T11:20:51.895Z,40.50
2023-03-06T11:23:40.789Z,39.92
2023-03-06T11:26:16.173Z,39.57
2023-03-06T11:29:09.224Z,39.74
2023-03-06T11:31:41.908Z,39.68
2023-03-06T11:34:11.460Z,39.09
2023-03-06T11:37:10.596Z,40.70
2023-03-06T11:39:37.189Z,39.28
2023-03-06T11:42:23.341Z,39.60
2023-03-06T11:45:22.278Z,39.59
2023-03-06T11:48:01.862Z,39.18
2023-03-06T11:50:38.643Z,39.75
2023-03-06T11:53:40.875Z,40.02
2023-03-06T11:56:10.324Z,39.82
2023-03-06T11:59:18.000Z,38.98
2023-03-06T12:02:18.907Z,39.11
2023-03-06T12:04:54.443Z,38.61
2023-03-06T12:07:33.868Z,39.09
2023-03-06T12:10:24.255Z,38.87
2023-03-06T12:13:19.692Z,39.27
2023-03-06T12:16:07.428Z,39.70
2023-03-06T12:18:54.972Z,39.03
2023-03-06T12:21:27.647Z,39.38
2023-03-06T12:24:09.904Z,39.71
2023-03-06T12:27:02.429Z,38.96
2023-03-06T12:29:41.150Z,39.39
2023-03-06T12:32:38.140Z,38.49
2023-03-06T12:35:25.900Z,40.28
2023-03-06T12:38:04.096Z,38.04
2023-03-06T12:41:02.547Z,37.94
2023-03-06T12:43:31.874Z,38.72
2023-03-06T12:46:08.461Z,39.22
2023-03-06T12:48:37.311Z,38.51
2023-03-06T12:51:08.022Z,39.37
2023-03-06T12:53:36.159Z,38.09
2023-03-06T12:56:03.947Z,37.74
2023-03-06T12:58:30.554Z,38.60
2023-03-06T13:01:04.228Z,38.16
2023-03-06T13:03:44.914Z,38.27
2023-03-06T13:06:20.300Z,37.84
2023-03-06T13:09:03.313Z,38.21
2023-03-06T13:12:09.064Z,36.31
2023-03-06T13:14:42.259Z,36.59
2023-03-06T13:17:24.112Z,36.46
2023-03-06T13:20:26.826Z,36.06
2023-03-06T13:22:53.487Z,36.86
2023-03-06T13:25:20.078Z,35.97
2023-03-06T13:28:00.132Z,35.84
2023-03-06T13:30:38.842Z,36.59
2023-03-06T13:33:25.852Z,37.20
2023-03-06T13:36:28.742Z,36.06
2023-03-06T13:38:56.539Z,35.73
2023-03-06T13:41:23.210Z,36.20
2023-03-06T13:43:57.028Z,36.06
2023-03-06T13:46:26.804Z,35.83
2023-03-06T13:49:08.822Z,35.45
2023-03-06T13:51:38.996Z,37.26
2023-03-06T13:54:20.861Z,35.88
2023-03-06T13:57:08.503Z,35.86
2023-03-06T14:00:09.001Z,36.13
2023-03-06T14:03:01.997Z,37.23
2023-03-06T14:05:55.115Z,36.92
2023-03-06T14:08:24.480Z,37.10
2023-03-06T14:11:17.260Z,37.70
2023-03-06T14:13:50.663Z,37.35
2023-03-06T14:16:23.983Z,36.88
2023-03-06T14:18:57.456Z,36.94
2023-03-06T14:21:32.638Z,37.57
2023-03-06T14:24:04.604Z,37.60
2023-03-06T14:26:41.369Z,37.89
2023-03-06T14:29:23.050Z,38.52
2023-03-06T14:31:51.928Z,38.35
2023-03-06T14:34:22.483Z,38.65
2023-03-06T14:36:51.463Z,36.58
2023-03-06T14:39:21.209Z,36.72
2023-03-06T14:41:48.014Z,37.29
2023-03-06T14:44:21.581Z,37.38
2023-03-06T14:46:51.231Z,38.12
2023-03-06T14:49:20.251Z,38.34
2023-03-06T14:51:52.340Z,38.93
2023-03-06T14:54:26.011Z,39.18
2023-03-06T14:57:00.022Z,38.56
2023-03-06T14:59:30.559Z,38.80
2023-03-06T15:02:00.543Z,38.62
2023-03-06T15:04:46.545Z,38.56
2023-03-06T15:07:21.910Z,38.36
2023-03-06T15:09:53.931Z,38.48
2023-03-06T15:12:20.775Z,38.60
2023-03-06T15:15:04.243Z,39.16
2023-03-06T15:17:45.569Z,39.29
2023-03-06T15:20:52.806Z,41.74
2023-03-06T15:23:21.185Z,43.78
2023-03-06T15:25:57.546Z,45.28
2023-03-06T15:28:30.475Z,45.78
2023-03-06T15:31:05.338Z,45.90
2023-03-06T15:33:32.194Z,46.53
2023-03-06T15:36:04.667Z,46.56
2023-03-06T15:38:45.634Z,46.47
2023-03-06T15:41:30.482Z,47.50
2023-03-06T15:43:59.241Z,47.18
2023-03-06T15:46:25.920Z,47.28
2023-03-06T15:49:00.638Z,46.85
2023-03-06T15:51:29.176Z,47.21
2023-03-06T15:54:09.935Z,47.45
2023-03-06T15:56:44.248Z,48.21
2023-03-06T15:59:26.355Z,47.10
2023-03-06T16:01:54.276Z,47.71
2023-03-06T16:04:20.874Z,48.53
2023-03-06T16:06:47.464Z,46.96
2023-03-06T16:09:14.622Z,46.66
2023-03-06T16:11:47.154Z,46.86
2023-03-06T16:14:23.727Z,47.07
2023-03-06T16:16:54.339Z,47.62
2023-03-06T16:19:26.375Z,48.23
2023-03-06T16:21:54.637Z,48.98
2023-03-06T16:24:21.254Z,49.90
2023-03-06T16:26:53.118Z,49.18
2023-03-06T16:29:22.951Z,49.67
2023-03-06T16:31:49.679Z,50.10
2023-03-06T16:34:17.118Z,49.93
2023-03-06T16:36:43.720Z,50.25
2023-03-06T16:39:14.875Z,50.38
2023-03-06T16:41:41.803Z,49.94
2023-03-06T16:44:10.242Z,49.96
2023-03-06T16:46:42.531Z,50.25
2023-03-06T16:49:16.000Z,50.54
2023-03-06T16:51:42.755Z,50.99
2023-03-06T16:54:09.368Z,51.63
2023-03-06T16:56:35.961Z,52.40
2023-03-06T16:59:02.531Z,52.79
2023-03-06T17:01:29.124Z,52.77
2023-03-06T17:03:55.796Z,52.85
2023-03-06T17:06:23.219Z,52.93
2023-03-06T17:08:50.634Z,52.81
2023-03-06T17:11:18.026Z,53.01
2023-03-06T17:13:44.625Z,52.76
2023-03-06T17:16:18.267Z,53.27
2023-03-06T17:18:45.817Z,53.41
2023-03-06T17:21:15.648Z,54.39
2023-03-06T17:23:42.540Z,56.16
2023-03-06T17:26:10.710Z,55.71
2023-03-06T17:28:38.264Z,55.60
2023-03-06T17:31:19.448Z,55.71
2023-03-06T17:33:46.581Z,56.90
2023-03-06T17:36:14.583Z,57.45
2023-03-06T17:38:42.371Z,57.90
2023-03-06T17:41:10.350Z,58.37
2023-03-06T17:43:38.666Z,58.63
2023-03-06T17:46:10.084Z,59.00
2023-03-06T17:48:37.496Z,58.96
2023-03-06T17:51:04.676Z,60.30
2023-03-06T17:53:31.747Z,60.28
2023-03-06T17:55:58.516Z,61.02
2023-03-06T17:58:26.650Z,61.26
2023-03-06T18:00:53.211Z,62.15
2023-03-06T18:03:19.838Z,62.65
2023-03-06T18:05:46.380Z,63.20
2023-03-06T18:08:13.163Z,62.18
2023-03-06T18:10:41.328Z,63.25
2023-03-06T18:13:10.714Z,63.50
2023-03-06T18:15:41.392Z,64.72
2023-03-06T18:18:08.961Z,66.33
2023-03-06T18:20:47.202Z,66.46
2023-03-06T18:23:14.264Z,66.11
2023-03-06T18:25:41.468Z,65.73
2023-03-06T18:28:08.227Z,64.30
2023-03-06T18:30:36.056Z,64.73
2023-03-06T18:33:02.864Z,65.88
2023-03-06T18:35:29.449Z,66.73
2023-03-06T18:37:56.117Z,66.37
2023-03-06T18:40:24.761Z,66.99
2023-03-06T18:42:54.826Z,68.16
2023-03-06T18:45:21.498Z,67.95
2023-03-06T18:47:48.101Z,68.65
2023-03-06T18:50:17.562Z,68.27
2023-03-06T18:52:44.754Z,68.40
2023-03-06T18:55:12.334Z,69.15
2023-03-06T18:57:39.275Z,69.17
2023-03-06T19:00:07.463Z,69.65
2023-03-06T19:02:34.111Z,69.86
2023-03-06T19:05:00.785Z,71.13
2023-03-06T19:07:27.509Z,71.34
2023-03-06T19:09:54.153Z,71.93
2023-03-06T19:12:21.118Z,71.86
2023-03-06T19:14:47.773Z,70.92
2023-03-06T19:17:14.335Z,70.76
2023-03-06T19:19:41.036Z,70.79
2023-03-06T19:22:07.656Z,71.58
2023-03-06T19:24:34.359Z,71.90
2023-03-06T19:27:00.972Z,73.54
2023-03-06T19:29:28.489Z,73.63
2023-03-06T19:31:57.300Z,73.10
2023-03-06T19:34:25.190Z,72.90
2023-03-06T19:36:51.806Z,73.47
2023-03-06T19:39:18.576Z,74.05
2023-03-06T19:41:47.006Z,73.96
2023-03-06T19:44:14.634Z,73.95
2023-03-06T19:46:41.337Z,75.44
2023-03-06T19:49:12.152Z,75.87
2023-03-06T19:51:40.116Z,75.45
2023-03-06T19:54:06.973Z,75.17
2023-03-06T19:56:33.798Z,75.22
2023-03-06T19:59:00.634Z,74.49
2023-03-06T20:01:28.301Z,74.50
2023-03-06T20:03:59.645Z,74.39
2023-03-06T20:06:29.887Z,74.59
2023-03-06T20:08:56.572Z,75.09
2023-03-06T20:11:26.103Z,75.24
2023-03-06T20:13:53.733Z,77.08
2023-03-06T20:16:20.358Z,76.75
2023-03-06T20:18:47.061Z,75.62
2023-03-06T20:21:14.745Z,75.32
2023-03-06T20:23:41.940Z,75.46
2023-03-06T20:26:12.014Z,75.30
2023-03-06T20:28:40.141Z,75.58
2023-03-06T20:31:13.335Z,75.80
2023-03-06T20:33:40.156Z,74.80
2023-03-06T20:36:17.022Z,75.63
2023-03-06T20:38:43.930Z,75.52
2023-03-06T20:41:18.668Z,75.82
2023-03-06T20:43:45.311Z,76.59
2023-03-06T20:46:12.869Z,77.11
2023-03-06T20:48:40.707Z,77.05
2023-03-06T20:51:14.916Z,76.97
2023-03-06T20:53:41.618Z,76.27
2023-03-06T20:56:12.800Z,76.73
2023-03-06T20:58:39.440Z,77.23
2023-03-06T21:01:05.989Z,77.87
2023-03-06T21:03:32.638Z,79.19
2023-03-06T21:05:59.218Z,79.54
2023-03-06T21:08:25.992Z,80.68
2023-03-06T21:10:52.573Z,80.72
2023-03-06T21:13:19.142Z,80.94
2023-03-06T21:15:47.621Z,80.98
2023-03-06T21:18:14.417Z,81.76
2023-03-06T21:20:42.296Z,81.75
2023-03-06T21:23:09.214Z,82.24
2023-03-06T21:25:36.081Z,82.99
2023-03-06T21:28:03.001Z,83.13
2023-03-06T21:30:30.289Z,84.02
2023-03-06T21:32:56.959Z,85.49
2023-03-06T21:35:23.613Z,86.25
2023-03-06T21:37:50.348Z,85.33
2023-03-06T21:40:17.028Z,84.42
2023-03-06T21:42:43.591Z,84.16
2023-03-06T21:45:10.566Z,83.04
2023-03-06T21:47:41.002Z,83.44
2023-03-06T21:50:09.952Z,82.87
2023-03-06T21:52:37.054Z,82.88
2023-03-06T21:55:04.082Z,82.23
2023-03-06T21:57:30.761Z,82.91
2023-03-06T21:59:57.439Z,82.10
2023-03-06T22:02:24.140Z,81.38
2023-03-06T22:04:52.662Z,81.65
2023-03-06T22:07:22.945Z,81.35
2023-03-06T22:09:52.840Z,81.37
2023-03-06T22:12:19.912Z,81.26
2023-03-06T22:14:46.990Z,82.00
2023-03-06T22:17:13.729Z,82.22
2023-03-06T22:19:40.353Z,82.90
2023-03-06T22:22:07.908Z,82.11
2023-03-06T22:24:35.454Z,81.48
2023-03-06T22:27:02.040Z,82.25
2023-03-06T22:29:28.683Z,84.45
2023-03-06T22:31:55.273Z,85.47
2023-03-06T22:34:21.853Z,85.76
2023-03-06T22:36:48.564Z,86.06
2023-03-06T22:39:15.265Z,87.88
2023-03-06T22:41:41.865Z,87.07
2023-03-06T22:44:14.458Z,86.86
2023-03-06T22:46:41.626Z,87.75
2023-03-06T22:49:11.503Z,87.37
2023-03-06T22:51:38.962Z,87.14
2023-03-06T22:54:06.696Z,86.53
2023-03-06T22:56:33.949Z,86.51
2023-03-06T22:59:00.826Z,86.65
2023-03-06T23:01:30.349Z,85.85
2023-03-06T23:03:59.723Z,86.65
2023-03-06T23:06:34.851Z,86.03
2023-03-06T23:09:04.666Z,85.89
2023-03-06T23:11:31.823Z,85.54
2023-03-06T23:13:58.857Z,85.75
2023-03-06T23:16:26.124Z,88.70
2023-03-06T23:18:53.351Z,88.68
2023-03-06T23:21:21.645Z,88.56
2023-03-06T23:23:50.433Z,89.15
2023-03-06T23:26:19.421Z,89.31
2023-03-06T23:28:46.219Z,89.23
2023-03-06T23:31:15.815Z,89.47
2023-03-06T23:33:42.868Z,88.72
2023-03-06T23:36:12.488Z,89.20
2023-03-06T23:38:40.075Z,88.96
2023-03-06T23:41:13.535Z,89.38
2023-03-06T23:43:40.320Z,89.63
2023-03-06T23:46:07.535Z,89.10
2023-03-06T23:48:35.803Z,90.19
2023-03-06T23:51:12.754Z,89.54
2023-03-06T23:53:39.497Z,89.21
2023-03-06T23:56:07.071Z,90.04
2023-03-06T23:58:34.060Z,90.44
